createdAt,value
2022-11-15T00:02:23.594Z,403.70149
2022-11-15T00:07:53.416Z,390.37681
2022-11-15T00:12:56.468Z,371.77778
2022-11-15T00:17:58.077Z,387.16547
2022-11-15T00:22:59.757Z,377.80282
2022-11-15T00:28:01.500Z,374.76923
2022-11-15T00:33:03.158Z,360.21622
2022-11-15T00:38:04.794Z,351.94702
2022-11-15T00:43:06.768Z,326.6087
2022-11-15T00:48:08.435Z,288.13408
2022-11-15T00:53:10.153Z,282.46154
2022-11-15T00:58:11.788Z,250.46766
2022-11-15T01:04:01.480Z,252
2022-11-15T01:09:03.623Z,276.97297
2022-11-15T01:14:05.312Z,222.73303
2022-11-15T01:19:07.245Z,233.20188
2022-11-15T01:24:08.968Z,226.56881
2022-11-15T01:29:10.771Z,233.20188
2022-11-15T01:34:12.617Z,244.4878
2022-11-15T01:39:14.399Z,226.56881
2022-11-15T01:44:16.318Z,252
2022-11-15T01:49:18.070Z,269.92593
2022-11-15T01:54:19.853Z,266.51309
2022-11-15T01:59:21.639Z,261.52577
2022-11-15T02:04:23.576Z,256.69036
2022-11-15T02:09:25.255Z,234.56604
2022-11-15T02:14:26.921Z,241.58454
2022-11-15T02:19:28.544Z,256.69036
2022-11-15T02:24:30.219Z,245.96078
2022-11-15T02:29:31.834Z,224
2022-11-15T02:34:33.475Z,266.51309
2022-11-15T02:39:35.905Z,250.46766
2022-11-15T02:44:37.514Z,271.65957
2022-11-15T02:49:39.120Z,282.46154
2022-11-15T02:54:40.746Z,278.78261
2022-11-15T02:59:42.404Z,290.06742
2022-11-15T03:04:44.117Z,306.35294
2022-11-15T03:09:45.725Z,312.86228
2022-11-15T03:14:47.412Z,234.56604
2022-11-15T03:19:49.041Z,319.60976
2022-11-15T03:24:50.726Z,324.24691
2022-11-15T03:29:52.401Z,304.23392
2022-11-15T03:34:54.027Z,294
2022-11-15T03:39:55.667Z,310.66667
2022-11-15T03:44:57.461Z,329
2022-11-15T03:49:59.012Z,326.6087
2022-11-15T03:55:00.644Z,344
2022-11-15T04:00:02.680Z,321.91411
2022-11-15T04:05:04.354Z,344
2022-11-15T04:10:06.001Z,371.77778
2022-11-15T04:15:07.717Z,377.80282
2022-11-15T04:20:09.800Z,365.91781
2022-11-15T04:25:11.951Z,341.41935
2022-11-15T04:30:13.632Z,351.94702
2022-11-15T04:35:15.279Z,357.42282
2022-11-15T04:40:17.325Z,360.21622
2022-11-15T04:45:19.419Z,365.91781
2022-11-15T04:50:21.061Z,380.87943
2022-11-15T04:55:22.705Z,354.66667
2022-11-15T05:00:24.650Z,374.76923
2022-11-15T05:05:26.722Z,380.87943
2022-11-15T05:10:28.621Z,384
2022-11-15T05:15:30.316Z,387.16547
2022-11-15T05:20:32.108Z,390.37681
2022-11-15T05:25:33.940Z,403.70149
2022-11-15T05:30:35.786Z,414.22901
2022-11-15T05:35:37.513Z,400.2963
2022-11-15T05:40:39.164Z,400.2963
2022-11-15T05:45:41.165Z,417.84615
2022-11-15T05:50:42.890Z,400.2963
2022-11-15T05:55:44.794Z,407.15789
2022-11-15T06:00:46.664Z,387.16547
2022-11-15T06:05:48.372Z,390.37681
2022-11-15T06:10:50.070Z,363.04762
2022-11-15T06:15:51.817Z,396.94118
2022-11-15T06:20:53.744Z,403.70149
2022-11-15T06:25:55.436Z,400.2963
2022-11-15T06:30:57.082Z,400.2963
2022-11-15T06:35:58.730Z,407.15789
2022-11-15T06:41:00.472Z,410.66667
2022-11-15T06:46:02.136Z,407.15789
2022-11-15T06:51:03.811Z,390.37681
2022-11-15T06:56:05.466Z,403.70149
2022-11-15T07:01:07.327Z,396.94118
2022-11-15T07:06:09.090Z,407.15789
2022-11-15T07:11:10.674Z,400.2963
2022-11-15T07:16:12.461Z,390.37681
2022-11-15T07:21:14.125Z,396.94118
2022-11-15T07:26:15.915Z,400.2963
2022-11-15T07:31:17.788Z,396.94118
2022-11-15T07:36:19.429Z,403.70149
2022-11-15T07:41:21.062Z,417.84615
2022-11-15T07:46:22.746Z,417.84615
2022-11-15T07:51:24.400Z,407.15789
2022-11-15T07:56:26.070Z,400.2963
2022-11-15T08:01:28.473Z,421.51938
2022-11-15T08:06:30.205Z,432.88889
2022-11-15T08:11:31.902Z,414.22901
2022-11-15T08:16:33.540Z,403.70149
2022-11-15T08:21:35.176Z,400.2963
2022-11-15T08:26:36.898Z,396.94118
2022-11-15T08:31:38.494Z,387.16547
2022-11-15T08:36:45.656Z,393.63504
2022-11-15T08:41:48.196Z,396.94118
2022-11-15T08:46:49.872Z,400.2963
2022-11-15T08:51:51.507Z,400.2963
2022-11-15T08:56:53.185Z,407.15789
2022-11-15T09:01:54.932Z,410.66667
2022-11-15T09:06:56.935Z,410.66667
2022-11-15T09:12:02.688Z,407.15789
2022-11-15T09:17:05.300Z,410.66667
2022-11-15T09:22:06.987Z,396.94118
2022-11-15T09:27:08.689Z,410.66667
2022-11-15T09:32:11.592Z,417.84615
2022-11-15T09:37:29.894Z,407.15789
2022-11-15T09:42:38.216Z,407.15789
2022-11-15T09:47:42.244Z,414.22901
2022-11-15T09:52:46.364Z,407.15789
2022-11-15T09:57:48.202Z,417.84615
2022-11-15T10:02:49.948Z,429.03937
2022-11-15T10:07:51.721Z,403.70149
2022-11-15T10:12:53.509Z,417.84615
2022-11-15T10:17:55.263Z,429.03937
2022-11-15T10:22:57.038Z,414.22901
2022-11-15T10:27:58.892Z,421.51938
2022-11-15T10:33:00.573Z,407.15789
2022-11-15T10:38:02.301Z,396.94118
2022-11-15T10:43:04.670Z,396.94118
2022-11-15T10:48:06.553Z,407.15789
2022-11-15T10:53:08.204Z,410.66667
2022-11-15T10:58:09.856Z,432.88889
2022-11-15T11:03:11.680Z,414.22901
2022-11-15T11:08:13.382Z,414.22901
2022-11-15T11:13:15.090Z,425.25
2022-11-15T11:18:16.747Z,421.51938
2022-11-15T11:23:18.425Z,417.84615
2022-11-15T11:28:20.032Z,421.51938
2022-11-15T11:33:21.635Z,436.8
2022-11-15T11:38:23.260Z,432.88889
2022-11-15T11:43:24.895Z,410.66667
2022-11-15T11:48:27.213Z,414.22901
2022-11-15T11:53:29.076Z,421.51938
2022-11-15T11:58:31.042Z,421.51938
2022-11-15T12:03:33.079Z,421.51938
2022-11-15T12:08:35.458Z,414.22901
2022-11-15T12:13:37.361Z,444.81301
2022-11-15T12:18:39.231Z,421.51938
2022-11-15T12:23:42.501Z,432.88889
2022-11-15T12:29:05.899Z,410.66667
2022-11-15T12:34:09.734Z,410.66667
2022-11-15T12:39:12.798Z,396.94118
2022-11-15T12:44:15.074Z,407.15789
2022-11-15T12:49:18.224Z,421.51938
2022-11-15T12:54:26.025Z,425.25
2022-11-15T12:59:27.839Z,421.51938
2022-11-15T13:04:30.385Z,425.25
2022-11-15T13:09:34.112Z,425.25
2022-11-15T13:14:40.854Z,425.25
2022-11-15T13:19:42.654Z,429.03937
2022-11-15T13:24:50.459Z,429.03937
2022-11-15T13:29:52.213Z,432.88889
2022-11-15T13:34:55.025Z,444.81301
2022-11-15T13:39:56.793Z,429.03937
2022-11-15T13:44:58.495Z,444.81301
2022-11-15T13:50:00.143Z,444.81301
2022-11-15T13:55:02.088Z,436.8
2022-11-15T14:00:03.905Z,421.51938
2022-11-15T14:05:05.607Z,429.03937
2022-11-15T14:10:07.361Z,425.25
2022-11-15T14:15:09.059Z,425.25
2022-11-15T14:20:10.975Z,417.84615
2022-11-15T14:25:12.651Z,365.91781
2022-11-15T14:30:14.235Z,425.25
2022-11-15T14:35:15.994Z,432.88889
2022-11-15T14:40:17.638Z,429.03937
2022-11-15T14:45:19.225Z,429.03937
2022-11-15T14:50:20.884Z,421.51938
2022-11-15T14:55:22.581Z,407.15789
2022-11-15T15:00:24.220Z,410.66667
2022-11-15T15:05:26.229Z,400.2963
2022-11-15T15:10:40.058Z,417.84615
2022-11-15T15:15:43.019Z,380.87943
2022-11-15T15:20:44.689Z,390.37681
2022-11-15T15:25:46.595Z,410.66667
2022-11-15T15:30:48.443Z,396.94118
2022-11-15T15:35:50.163Z,421.51938
2022-11-15T15:40:52.709Z,414.22901
2022-11-15T15:45:54.386Z,436.8
2022-11-15T15:50:56.155Z,414.22901
2022-11-15T15:55:57.776Z,425.25
2022-11-15T16:00:59.463Z,448.91803
2022-11-15T16:06:01.117Z,444.81301
2022-11-15T16:11:02.872Z,429.03937
2022-11-15T16:16:04.541Z,436.8
2022-11-15T16:21:06.237Z,390.37681
2022-11-15T16:26:07.911Z,440.77419
2022-11-15T16:31:09.590Z,436.8
2022-11-15T16:36:11.269Z,436.8
2022-11-15T16:41:13.007Z,390.37681
2022-11-15T16:46:14.651Z,368.82759
2022-11-15T16:51:16.310Z,414.22901
2022-11-15T16:56:17.962Z,425.25
2022-11-15T17:01:19.775Z,407.15789
2022-11-15T17:06:21.426Z,429.03937
2022-11-15T17:11:23.176Z,421.51938
2022-11-15T17:16:25.028Z,436.8
2022-11-15T17:21:31.030Z,421.51938
2022-11-15T17:26:40.315Z,417.84615
2022-11-15T17:31:42.580Z,410.66667
2022-11-15T17:36:44.140Z,432.88889
2022-11-15T17:41:45.769Z,440.77419
2022-11-15T17:46:47.420Z,414.22901
2022-11-15T17:51:50.289Z,432.88889
2022-11-15T17:56:52.085Z,453.09091
2022-11-15T18:01:53.753Z,421.51938
2022-11-15T18:06:55.463Z,421.51938
2022-11-15T18:11:57.236Z,444.81301
2022-11-15T18:16:58.860Z,425.25
2022-11-15T18:22:01.581Z,414.22901
2022-11-15T18:27:03.541Z,414.22901
2022-11-15T18:32:05.177Z,390.37681
2022-11-15T18:37:06.813Z,410.66667
2022-11-15T18:42:08.504Z,396.94118
2022-11-15T18:47:10.174Z,421.51938
2022-11-15T18:52:11.790Z,425.25
2022-11-15T18:57:13.615Z,432.88889
2022-11-15T19:02:15.235Z,421.51938
2022-11-15T19:07:16.958Z,417.84615
2022-11-15T19:12:18.670Z,421.51938
2022-11-15T19:17:20.271Z,436.8
2022-11-15T19:22:22.019Z,444.81301
2022-11-15T19:27:23.689Z,432.88889
2022-11-15T19:32:25.467Z,448.91803
2022-11-15T19:37:27.817Z,436.8
2022-11-15T19:42:29.977Z,436.8
2022-11-15T19:47:32.038Z,432.88889
2022-11-15T19:52:33.650Z,453.09091
2022-11-15T19:57:35.514Z,421.51938
2022-11-15T20:02:37.196Z,429.03937
2022-11-15T20:07:38.925Z,432.88889
2022-11-15T20:12:40.624Z,417.84615
2022-11-15T20:17:42.301Z,425.25
2022-11-15T20:22:44.008Z,421.51938
2022-11-15T20:27:45.705Z,387.16547
2022-11-15T20:32:47.352Z,410.66667
2022-11-15T20:37:49.018Z,425.25
2022-11-15T20:42:50.653Z,421.51938
2022-11-15T20:47:52.296Z,414.22901
2022-11-15T20:52:53.916Z,414.22901
2022-11-15T20:57:55.564Z,414.22901
2022-11-15T21:02:57.165Z,407.15789
2022-11-15T21:07:58.896Z,403.70149
2022-11-15T21:13:01.935Z,403.70149
2022-11-15T21:18:03.732Z,421.51938
2022-11-15T21:23:05.425Z,432.88889
2022-11-15T21:28:07.721Z,436.8
2022-11-15T21:33:09.658Z,414.22901
2022-11-15T21:38:11.404Z,414.22901
2022-11-15T21:43:13.012Z,421.51938
2022-11-15T21:48:14.653Z,410.66667
2022-11-15T21:53:16.293Z,403.70149
2022-11-15T21:58:17.978Z,396.94118
2022-11-15T22:03:19.620Z,410.66667
2022-11-15T22:08:21.862Z,403.70149
2022-11-15T22:13:23.469Z,417.84615
2022-11-15T22:18:26.599Z,396.94118
2022-11-15T22:23:28.503Z,393.63504
2022-11-15T22:28:30.223Z,396.94118
2022-11-15T22:33:32.063Z,396.94118
2022-11-15T22:38:33.950Z,387.16547
2022-11-15T22:43:35.784Z,377.80282
2022-11-15T22:48:38.101Z,390.37681
2022-11-15T22:53:40.336Z,380.87943
2022-11-15T22:58:41.962Z,396.94118
2022-11-15T23:03:43.767Z,414.22901
2022-11-15T23:08:45.476Z,407.15789
2022-11-15T23:13:47.158Z,414.22901
2022-11-15T23:18:48.845Z,410.66667
2022-11-15T23:23:50.724Z,410.66667
2022-11-15T23:28:52.474Z,407.15789
2022-11-15T23:33:54.183Z,403.70149
2022-11-15T23:38:56.173Z,393.63504
2022-11-15T23:43:57.730Z,374.76923
2022-11-15T23:48:59.345Z,341.41935
2022-11-15T23:54:00.991Z,360.21622
2022-11-15T23:59:02.582Z,365.91781
